sensor_id;sensor_type;location;lat;lon;timestamp;P1;durP1;ratioP1;P2;durP2;ratioP2
78406;SDS011;67692;51.074;-1.790;2023-05-29T00:01:14;13.18;;;4.93;;
78406;SDS011;67692;51.074;-1.790;2023-05-29T00:03:43;16.17;;;4.50;;
78406;SDS011;67692;51.074;-1.790;2023-05-29T00:06:10;9.80;;;4.10;;
78406;SDS011;67692;51.074;-1.790;2023-05-29T00:08:38;16.38;;;4.43;;
78406;SDS011;67692;51.074;-1.790;2023-05-29T00:11:05;8.38;;;3.50;;
78406;SDS011;67692;51.074;-1.790;2023-05-29T00:13:32;14.07;;;4.03;;
78406;SDS011;67692;51.074;-1.790;2023-05-29T00:15:59;9.70;;;4.47;;
78406;SDS011;67692;51.074;-1.790;2023-05-29T00:18:25;13.45;;;4.03;;
78406;SDS011;67692;51.074;-1.790;2023-05-29T00:20:53;10.45;;;3.70;;
78406;SDS011;67692;51.074;-1.790;2023-05-29T00:23:21;14.32;;;4.00;;
78406;SDS011;67692;51.074;-1.790;2023-05-29T00:25:49;9.15;;;3.55;;
78406;SDS011;67692;51.074;-1.790;2023-05-29T00:28:16;14.82;;;4.07;;
78406;SDS011;67692;51.074;-1.790;2023-05-29T00:30:42;9.77;;;4.00;;
78406;SDS011;67692;51.074;-1.790;2023-05-29T00:33:09;9.68;;;3.55;;
78406;SDS011;67692;51.074;-1.790;2023-05-29T00:35:36;6.40;;;2.60;;
78406;SDS011;67692;51.074;-1.790;2023-05-29T00:38:02;9.50;;;3.08;;
78406;SDS011;67692;51.074;-1.790;2023-05-29T00:40:29;7.70;;;2.70;;
78406;SDS011;67692;51.074;-1.790;2023-05-29T00:42:57;8.02;;;2.10;;
78406;SDS011;67692;51.074;-1.790;2023-05-29T00:45:24;8.60;;;4.05;;
78406;SDS011;67692;51.074;-1.790;2023-05-29T00:47:51;7.80;;;2.60;;
78406;SDS011;67692;51.074;-1.790;2023-05-29T00:50:20;10.82;;;2.63;;
78406;SDS011;67692;51.074;-1.790;2023-05-29T00:52:48;8.77;;;2.33;;
78406;SDS011;67692;51.074;-1.790;2023-05-29T00:55:16;10.45;;;2.25;;
78406;SDS011;67692;51.074;-1.790;2023-05-29T00:57:43;8.68;;;2.78;;
78406;SDS011;67692;51.074;-1.790;2023-05-29T01:00:12;10.60;;;2.67;;
78406;SDS011;67692;51.074;-1.790;2023-05-29T01:02:39;9.98;;;2.10;;
78406;SDS011;67692;51.074;-1.790;2023-05-29T01:05:09;7.78;;;2.40;;
78406;SDS011;67692;51.074;-1.790;2023-05-29T01:07:36;10.77;;;2.03;;
78406;SDS011;67692;51.074;-1.790;2023-05-29T01:10:03;10.43;;;2.33;;
78406;SDS011;67692;51.074;-1.790;2023-05-29T01:12:33;9.93;;;2.10;;
78406;SDS011;67692;51.074;-1.790;2023-05-29T01:15:11;9.63;;;1.98;;
78406;SDS011;67692;51.074;-1.790;2023-05-29T01:17:47;6.95;;;2.00;;
78406;SDS011;67692;51.074;-1.790;2023-05-29T01:20:30;10.45;;;2.45;;
78406;SDS011;67692;51.074;-1.790;2023-05-29T01:23:07;11.18;;;2.35;;
78406;SDS011;67692;51.074;-1.790;2023-05-29T01:25:50;8.82;;;2.55;;
78406;SDS011;67692;51.074;-1.790;2023-05-29T01:28:31;5.28;;;1.80;;
78406;SDS011;67692;51.074;-1.790;2023-05-29T01:31:02;10.18;;;2.00;;
78406;SDS011;67692;51.074;-1.790;2023-05-29T01:33:30;10.93;;;2.00;;
78406;SDS011;67692;51.074;-1.790;2023-05-29T01:35:56;6.10;;;1.70;;
78406;SDS011;67692;51.074;-1.790;2023-05-29T01:38:23;7.63;;;1.90;;
78406;SDS011;67692;51.074;-1.790;2023-05-29T01:40:50;8.65;;;1.88;;
78406;SDS011;67692;51.074;-1.790;2023-05-29T01:43:17;6.93;;;1.85;;
78406;SDS011;67692;51.074;-1.790;2023-05-29T01:45:45;11.55;;;2.15;;
78406;SDS011;67692;51.074;-1.790;2023-05-29T01:48:12;7.47;;;1.77;;
78406;SDS011;67692;51.074;-1.790;2023-05-29T01:50:39;9.18;;;2.13;;
78406;SDS011;67692;51.074;-1.790;2023-05-29T01:53:08;9.65;;;2.13;;
78406;SDS011;67692;51.074;-1.790;2023-05-29T01:55:35;8.45;;;1.50;;
78406;SDS011;67692;51.074;-1.790;2023-05-29T01:58:02;7.60;;;1.73;;
78406;SDS011;67692;51.074;-1.790;2023-05-29T02:00:29;12.15;;;1.75;;
78406;SDS011;67692;51.074;-1.790;2023-05-29T02:02:57;11.60;;;2.20;;
78406;SDS011;67692;51.074;-1.790;2023-05-29T02:05:23;6.10;;;1.27;;
78406;SDS011;67692;51.074;-1.790;2023-05-29T02:07:50;4.72;;;1.70;;
78406;SDS011;67692;51.074;-1.790;2023-05-29T02:10:17;7.40;;;1.90;;
78406;SDS011;67692;51.074;-1.790;2023-05-29T02:12:43;10.98;;;1.70;;
78406;SDS011;67692;51.074;-1.790;2023-05-29T02:15:10;11.60;;;2.35;;
78406;SDS011;67692;51.074;-1.790;2023-05-29T02:17:37;7.63;;;1.67;;
78406;SDS011;67692;51.074;-1.790;2023-05-29T02:20:05;7.88;;;1.73;;
78406;SDS011;67692;51.074;-1.790;2023-05-29T02:22:33;13.32;;;1.90;;
78406;SDS011;67692;51.074;-1.790;2023-05-29T02:24:59;8.80;;;1.58;;
78406;SDS011;67692;51.074;-1.790;2023-05-29T02:27:26;10.00;;;1.85;;
78406;SDS011;67692;51.074;-1.790;2023-05-29T02:29:53;11.88;;;1.88;;
78406;SDS011;67692;51.074;-1.790;2023-05-29T02:32:19;9.70;;;1.98;;
78406;SDS011;67692;51.074;-1.790;2023-05-29T02:34:47;5.25;;;2.38;;
78406;SDS011;67692;51.074;-1.790;2023-05-29T02:37:16;8.48;;;1.88;;
78406;SDS011;67692;51.074;-1.790;2023-05-29T02:39:42;13.85;;;2.15;;
78406;SDS011;67692;51.074;-1.790;2023-05-29T02:42:09;10.10;;;2.80;;
78406;SDS011;67692;51.074;-1.790;2023-05-29T02:44:36;8.15;;;1.83;;
78406;SDS011;67692;51.074;-1.790;2023-05-29T02:47:03;13.32;;;1.88;;
78406;SDS011;67692;51.074;-1.790;2023-05-29T02:49:30;10.65;;;1.90;;
78406;SDS011;67692;51.074;-1.790;2023-05-29T02:51:56;6.07;;;1.42;;
78406;SDS011;67692;51.074;-1.790;2023-05-29T02:54:24;8.30;;;1.85;;
78406;SDS011;67692;51.074;-1.790;2023-05-29T02:56:51;8.63;;;2.13;;
78406;SDS011;67692;51.074;-1.790;2023-05-29T02:59:18;4.25;;;1.35;;
78406;SDS011;67692;51.074;-1.790;2023-05-29T03:01:45;10.65;;;2.17;;
78406;SDS011;67692;51.074;-1.790;2023-05-29T03:04:12;7.07;;;1.65;;
78406;SDS011;67692;51.074;-1.790;2023-05-29T03:06:39;7.43;;;1.60;;
78406;SDS011;67692;51.074;-1.790;2023-05-29T03:09:06;9.57;;;1.75;;
78406;SDS011;67692;51.074;-1.790;2023-05-29T03:11:34;10.02;;;1.60;;
78406;SDS011;67692;51.074;-1.790;2023-05-29T03:14:01;8.65;;;1.83;;
78406;SDS011;67692;51.074;-1.790;2023-05-29T03:16:27;12.73;;;1.92;;
78406;SDS011;67692;51.074;-1.790;2023-05-29T03:18:54;10.80;;;1.80;;
78406;SDS011;67692;51.074;-1.790;2023-05-29T03:21:21;10.90;;;1.63;;
78406;SDS011;67692;51.074;-1.790;2023-05-29T03:23:48;6.00;;;1.55;;
78406;SDS011;67692;51.074;-1.790;2023-05-29T03:26:15;7.75;;;1.77;;
78406;SDS011;67692;51.074;-1.790;2023-05-29T03:28:43;12.60;;;1.90;;
78406;SDS011;67692;51.074;-1.790;2023-05-29T03:31:10;8.43;;;2.15;;
78406;SDS011;67692;51.074;-1.790;2023-05-29T03:33:37;7.13;;;1.92;;
78406;SDS011;67692;51.074;-1.790;2023-05-29T03:36:03;8.10;;;2.15;;
78406;SDS011;67692;51.074;-1.790;2023-05-29T03:38:32;7.03;;;1.77;;
78406;SDS011;67692;51.074;-1.790;2023-05-29T03:40:59;9.32;;;1.63;;
78406;SDS011;67692;51.074;-1.790;2023-05-29T03:43:26;7.18;;;1.83;;
78406;SDS011;67692;51.074;-1.790;2023-05-29T03:45:54;6.13;;;1.92;;
78406;SDS011;67692;51.074;-1.790;2023-05-29T03:48:20;6.95;;;1.33;;
78406;SDS011;67692;51.074;-1.790;2023-05-29T03:50:47;12.10;;;2.13;;
78406;SDS011;67692;51.074;-1.790;2023-05-29T03:53:14;7.40;;;1.55;;
78406;SDS011;67692;51.074;-1.790;2023-05-29T03:55:41;10.63;;;1.80;;
78406;SDS011;67692;51.074;-1.790;2023-05-29T03:58:07;6.90;;;1.55;;
78406;SDS011;67692;51.074;-1.790;2023-05-29T04:00:37;7.50;;;1.30;;
78406;SDS011;67692;51.074;-1.790;2023-05-29T04:03:05;12.43;;;1.85;;
78406;SDS011;67692;51.074;-1.790;2023-05-29T04:05:32;8.93;;;1.67;;
78406;SDS011;67692;51.074;-1.790;2023-05-29T04:07:59;10.57;;;1.70;;
78406;SDS011;67692;51.074;-1.790;2023-05-29T04:10:26;13.60;;;2.20;;
78406;SDS011;67692;51.074;-1.790;2023-05-29T04:12:52;8.07;;;1.60;;
78406;SDS011;67692;51.074;-1.790;2023-05-29T04:15:19;10.02;;;1.77;;
78406;SDS011;67692;51.074;-1.790;2023-05-29T04:17:46;7.25;;;1.70;;
78406;SDS011;67692;51.074;-1.790;2023-05-29T04:20:15;9.52;;;2.03;;
78406;SDS011;67692;51.074;-1.790;2023-05-29T04:22:42;11.30;;;1.80;;
78406;SDS011;67692;51.074;-1.790;2023-05-29T04:25:08;5.97;;;1.60;;
78406;SDS011;67692;51.074;-1.790;2023-05-29T04:27:35;7.63;;;1.88;;
78406;SDS011;67692;51.074;-1.790;2023-05-29T04:30:02;12.77;;;1.88;;
78406;SDS011;67692;51.074;-1.790;2023-05-29T04:32:29;6.20;;;1.60;;
78406;SDS011;67692;51.074;-1.790;2023-05-29T04:34:58;10.18;;;2.05;;
78406;SDS011;67692;51.074;-1.790;2023-05-29T04:37:28;8.52;;;1.38;;
78406;SDS011;67692;51.074;-1.790;2023-05-29T04:39:56;7.70;;;1.88;;
78406;SDS011;67692;51.074;-1.790;2023-05-29T04:42:23;5.88;;;1.42;;
78406;SDS011;67692;51.074;-1.790;2023-05-29T04:44:50;6.93;;;1.60;;
78406;SDS011;67692;51.074;-1.790;2023-05-29T04:47:18;5.97;;;1.60;;
78406;SDS011;67692;51.074;-1.790;2023-05-29T04:49:45;13.00;;;2.92;;
78406;SDS011;67692;51.074;-1.790;2023-05-29T04:52:13;10.68;;;1.58;;
78406;SDS011;67692;51.074;-1.790;2023-05-29T04:54:41;9.32;;;1.90;;
78406;SDS011;67692;51.074;-1.790;2023-05-29T04:57:08;7.60;;;1.83;;
78406;SDS011;67692;51.074;-1.790;2023-05-29T04:59:35;9.15;;;2.03;;
78406;SDS011;67692;51.074;-1.790;2023-05-29T05:02:02;6.82;;;1.58;;
78406;SDS011;67692;51.074;-1.790;2023-05-29T05:04:28;9.27;;;1.45;;
78406;SDS011;67692;51.074;-1.790;2023-05-29T05:06:55;11.63;;;2.20;;
78406;SDS011;67692;51.074;-1.790;2023-05-29T05:09:22;14.57;;;1.80;;
78406;SDS011;67692;51.074;-1.790;2023-05-29T05:11:50;7.22;;;1.42;;
78406;SDS011;67692;51.074;-1.790;2023-05-29T05:14:16;5.78;;;1.48;;
78406;SDS011;67692;51.074;-1.790;2023-05-29T05:16:43;10.15;;;1.77;;
78406;SDS011;67692;51.074;-1.790;2023-05-29T05:19:09;8.38;;;1.60;;
78406;SDS011;67692;51.074;-1.790;2023-05-29T05:21:36;11.77;;;2.50;;
78406;SDS011;67692;51.074;-1.790;2023-05-29T05:24:03;4.82;;;1.40;;
78406;SDS011;67692;51.074;-1.790;2023-05-29T05:26:30;12.50;;;1.70;;
78406;SDS011;67692;51.074;-1.790;2023-05-29T05:28:57;7.78;;;2.03;;
78406;SDS011;67692;51.074;-1.790;2023-05-29T05:31:24;6.40;;;1.75;;
78406;SDS011;67692;51.074;-1.790;2023-05-29T05:33:51;6.97;;;1.60;;
78406;SDS011;67692;51.074;-1.790;2023-05-29T05:36:18;7.13;;;1.48;;
78406;SDS011;67692;51.074;-1.790;2023-05-29T05:38:45;9.05;;;1.73;;
78406;SDS011;67692;51.074;-1.790;2023-05-29T05:41:11;5.97;;;1.27;;
78406;SDS011;67692;51.074;-1.790;2023-05-29T05:43:38;7.57;;;1.58;;
78406;SDS011;67692;51.074;-1.790;2023-05-29T05:46:06;7.05;;;1.33;;
78406;SDS011;67692;51.074;-1.790;2023-05-29T05:48:33;9.75;;;1.42;;
78406;SDS011;67692;51.074;-1.790;2023-05-29T05:50:59;10.95;;;2.03;;
78406;SDS011;67692;51.074;-1.790;2023-05-29T05:53:26;7.63;;;1.73;;
78406;SDS011;67692;51.074;-1.790;2023-05-29T05:55:53;9.00;;;2.08;;
78406;SDS011;67692;51.074;-1.790;2023-05-29T05:58:20;6.82;;;1.38;;
78406;SDS011;67692;51.074;-1.790;2023-05-29T06:00:47;7.53;;;2.10;;
78406;SDS011;67692;51.074;-1.790;2023-05-29T06:03:18;4.65;;;1.45;;
78406;SDS011;67692;51.074;-1.790;2023-05-29T06:05:45;10.05;;;1.73;;
78406;SDS011;67692;51.074;-1.790;2023-05-29T06:08:12;8.05;;;2.08;;
78406;SDS011;67692;51.074;-1.790;2023-05-29T06:10:40;5.35;;;1.35;;
78406;SDS011;67692;51.074;-1.790;2023-05-29T06:13:06;5.78;;;1.45;;
78406;SDS011;67692;51.074;-1.790;2023-05-29T06:15:33;7.88;;;1.60;;
78406;SDS011;67692;51.074;-1.790;2023-05-29T06:18:00;7.88;;;1.58;;
78406;SDS011;67692;51.074;-1.790;2023-05-29T06:20:29;9.40;;;2.22;;
78406;SDS011;67692;51.074;-1.790;2023-05-29T06:22:55;9.27;;;1.95;;
78406;SDS011;67692;51.074;-1.790;2023-05-29T06:25:23;8.88;;;1.35;;
78406;SDS011;67692;51.074;-1.790;2023-05-29T06:27:56;7.93;;;1.95;;
78406;SDS011;67692;51.074;-1.790;2023-05-29T06:30:23;12.95;;;1.50;;
78406;SDS011;67692;51.074;-1.790;2023-05-29T06:32:50;9.65;;;1.80;;
78406;SDS011;67692;51.074;-1.790;2023-05-29T06:35:16;6.97;;;1.55;;
78406;SDS011;67692;51.074;-1.790;2023-05-29T06:37:45;8.10;;;1.33;;
78406;SDS011;67692;51.074;-1.790;2023-05-29T06:40:12;7.25;;;1.40;;
78406;SDS011;67692;51.074;-1.790;2023-05-29T06:42:40;4.28;;;1.10;;
78406;SDS011;67692;51.074;-1.790;2023-05-29T06:45:09;7.05;;;1.33;;
78406;SDS011;67692;51.074;-1.790;2023-05-29T06:47:36;7.53;;;1.48;;
78406;SDS011;67692;51.074;-1.790;2023-05-29T06:50:03;6.80;;;1.65;;
78406;SDS011;67692;51.074;-1.790;2023-05-29T06:52:31;5.70;;;1.58;;
78406;SDS011;67692;51.074;-1.790;2023-05-29T06:54:59;8.20;;;1.67;;
78406;SDS011;67692;51.074;-1.790;2023-05-29T06:57:26;9.98;;;1.60;;
78406;SDS011;67692;51.074;-1.790;2023-05-29T06:59:52;9.93;;;1.65;;
78406;SDS011;67692;51.074;-1.790;2023-05-29T07:02:20;8.35;;;1.42;;
78406;SDS011;67692;51.074;-1.790;2023-05-29T07:04:46;8.88;;;1.30;;
78406;SDS011;67692;51.074;-1.790;2023-05-29T07:07:13;7.55;;;1.40;;
78406;SDS011;67692;51.074;-1.790;2023-05-29T07:09:40;7.18;;;1.67;;
78406;SDS011;67692;51.074;-1.790;2023-05-29T07:12:08;4.47;;;1.23;;
78406;SDS011;67692;51.074;-1.790;2023-05-29T07:14:34;8.93;;;2.05;;
78406;SDS011;67692;51.074;-1.790;2023-05-29T07:17:01;7.40;;;1.63;;
78406;SDS011;67692;51.074;-1.790;2023-05-29T07:19:28;9.20;;;1.50;;
78406;SDS011;67692;51.074;-1.790;2023-05-29T07:21:54;9.07;;;1.98;;
78406;SDS011;67692;51.074;-1.790;2023-05-29T07:24:21;9.93;;;1.70;;
78406;SDS011;67692;51.074;-1.790;2023-05-29T07:26:47;9.50;;;1.73;;
78406;SDS011;67692;51.074;-1.790;2023-05-29T07:29:16;10.85;;;1.65;;
78406;SDS011;67692;51.074;-1.790;2023-05-29T07:31:43;8.50;;;1.92;;
78406;SDS011;67692;51.074;-1.790;2023-05-29T07:34:09;6.10;;;1.63;;
78406;SDS011;67692;51.074;-1.790;2023-05-29T07:36:36;10.43;;;1.95;;
78406;SDS011;67692;51.074;-1.790;2023-05-29T07:39:03;10.05;;;1.60;;
78406;SDS011;67692;51.074;-1.790;2023-05-29T07:41:30;9.02;;;1.40;;
78406;SDS011;67692;51.074;-1.790;2023-05-29T07:43:57;11.05;;;1.52;;
78406;SDS011;67692;51.074;-1.790;2023-05-29T07:46:25;8.70;;;1.88;;
78406;SDS011;67692;51.074;-1.790;2023-05-29T07:48:52;9.95;;;1.60;;
78406;SDS011;67692;51.074;-1.790;2023-05-29T07:51:18;8.20;;;1.52;;
78406;SDS011;67692;51.074;-1.790;2023-05-29T07:53:45;7.72;;;1.27;;
78406;SDS011;67692;51.074;-1.790;2023-05-29T07:56:12;7.60;;;1.42;;
78406;SDS011;67692;51.074;-1.790;2023-05-29T07:58:39;9.40;;;1.52;;
78406;SDS011;67692;51.074;-1.790;2023-05-29T08:01:06;8.90;;;1.65;;
78406;SDS011;67692;51.074;-1.790;2023-05-29T08:03:34;9.85;;;1.92;;
78406;SDS011;67692;51.074;-1.790;2023-05-29T08:06:00;13.63;;;2.38;;
78406;SDS011;67692;51.074;-1.790;2023-05-29T08:08:28;14.77;;;2.47;;
78406;SDS011;67692;51.074;-1.790;2023-05-29T08:10:55;6.10;;;1.50;;
78406;SDS011;67692;51.074;-1.790;2023-05-29T08:13:21;8.45;;;1.67;;
78406;SDS011;67692;51.074;-1.790;2023-05-29T08:15:48;6.78;;;1.85;;
78406;SDS011;67692;51.074;-1.790;2023-05-29T08:18:15;6.20;;;1.52;;
78406;SDS011;67692;51.074;-1.790;2023-05-29T08:20:43;7.30;;;2.55;;
78406;SDS011;67692;51.074;-1.790;2023-05-29T08:23:09;7.07;;;1.58;;
78406;SDS011;67692;51.074;-1.790;2023-05-29T08:25:36;9.07;;;2.30;;
78406;SDS011;67692;51.074;-1.790;2023-05-29T08:28:03;8.85;;;1.90;;
78406;SDS011;67692;51.074;-1.790;2023-05-29T08:30:30;7.22;;;1.77;;
78406;SDS011;67692;51.074;-1.790;2023-05-29T08:32:56;11.80;;;1.80;;
78406;SDS011;67692;51.074;-1.790;2023-05-29T08:35:23;5.97;;;1.63;;
78406;SDS011;67692;51.074;-1.790;2023-05-29T08:37:51;5.85;;;1.60;;
78406;SDS011;67692;51.074;-1.790;2023-05-29T08:40:18;9.38;;;1.58;;
78406;SDS011;67692;51.074;-1.790;2023-05-29T08:42:45;6.95;;;1.52;;
78406;SDS011;67692;51.074;-1.790;2023-05-29T08:45:17;10.18;;;1.98;;
78406;SDS011;67692;51.074;-1.790;2023-05-29T08:47:45;6.82;;;1.70;;
78406;SDS011;67692;51.074;-1.790;2023-05-29T08:50:17;7.85;;;1.67;;
78406;SDS011;67692;51.074;-1.790;2023-05-29T08:52:46;7.28;;;1.45;;
78406;SDS011;67692;51.074;-1.790;2023-05-29T08:55:14;6.72;;;1.60;;
78406;SDS011;67692;51.074;-1.790;2023-05-29T08:57:41;4.72;;;1.33;;
78406;SDS011;67692;51.074;-1.790;2023-05-29T09:00:09;4.63;;;1.38;;
78406;SDS011;67692;51.074;-1.790;2023-05-29T09:02:38;8.20;;;1.58;;
78406;SDS011;67692;51.074;-1.790;2023-05-29T09:05:05;4.82;;;1.65;;
78406;SDS011;67692;51.074;-1.790;2023-05-29T09:07:32;8.13;;;1.48;;
78406;SDS011;67692;51.074;-1.790;2023-05-29T09:09:59;7.47;;;1.50;;
78406;SDS011;67692;51.074;-1.790;2023-05-29T09:12:28;8.68;;;1.52;;
78406;SDS011;67692;51.074;-1.790;2023-05-29T09:14:54;9.48;;;1.48;;
78406;SDS011;67692;51.074;-1.790;2023-05-29T09:17:21;5.93;;;1.30;;
78406;SDS011;67692;51.074;-1.790;2023-05-29T09:19:48;8.68;;;1.73;;
78406;SDS011;67692;51.074;-1.790;2023-05-29T09:22:16;7.10;;;1.52;;
78406;SDS011;67692;51.074;-1.790;2023-05-29T09:24:43;11.43;;;1.60;;
78406;SDS011;67692;51.074;-1.790;2023-05-29T09:27:12;6.97;;;1.33;;
78406;SDS011;67692;51.074;-1.790;2023-05-29T09:29:40;7.30;;;1.58;;
78406;SDS011;67692;51.074;-1.790;2023-05-29T09:32:08;8.23;;;1.50;;
78406;SDS011;67692;51.074;-1.790;2023-05-29T09:34:35;4.00;;;1.20;;
78406;SDS011;67692;51.074;-1.790;2023-05-29T09:37:03;6.45;;;1.38;;
78406;SDS011;67692;51.074;-1.790;2023-05-29T09:39:34;10.05;;;1.50;;
78406;SDS011;67692;51.074;-1.790;2023-05-29T09:42:10;7.45;;;1.55;;
78406;SDS011;67692;51.074;-1.790;2023-05-29T09:44:36;6.70;;;1.50;;
78406;SDS011;67692;51.074;-1.790;2023-05-29T09:47:05;6.95;;;1.48;;
78406;SDS011;67692;51.074;-1.790;2023-05-29T09:49:31;7.93;;;2.13;;
78406;SDS011;67692;51.074;-1.790;2023-05-29T09:51:58;7.65;;;1.42;;
78406;SDS011;67692;51.074;-1.790;2023-05-29T09:54:26;8.07;;;1.65;;
78406;SDS011;67692;51.074;-1.790;2023-05-29T09:56:54;5.32;;;1.15;;
78406;SDS011;67692;51.074;-1.790;2023-05-29T09:59:23;5.45;;;1.45;;
78406;SDS011;67692;51.074;-1.790;2023-05-29T10:01:55;8.40;;;2.03;;
78406;SDS011;67692;51.074;-1.790;2023-05-29T10:04:29;6.53;;;1.30;;
78406;SDS011;67692;51.074;-1.790;2023-05-29T10:06:57;6.55;;;1.40;;
78406;SDS011;67692;51.074;-1.790;2023-05-29T10:09:27;7.40;;;1.20;;
78406;SDS011;67692;51.074;-1.790;2023-05-29T10:11:55;11.63;;;1.63;;
78406;SDS011;67692;51.074;-1.790;2023-05-29T10:14:25;6.35;;;1.20;;
78406;SDS011;67692;51.074;-1.790;2023-05-29T10:16:56;5.15;;;1.02;;
78406;SDS011;67692;51.074;-1.790;2023-05-29T10:19:29;13.95;;;1.50;;
78406;SDS011;67692;51.074;-1.790;2023-05-29T10:21:57;5.65;;;1.20;;
78406;SDS011;67692;51.074;-1.790;2023-05-29T10:24:28;9.88;;;1.58;;
78406;SDS011;67692;51.074;-1.790;2023-05-29T10:26:56;3.72;;;1.13;;
78406;SDS011;67692;51.074;-1.790;2023-05-29T10:29:25;6.22;;;1.77;;
78406;SDS011;67692;51.074;-1.790;2023-05-29T10:32:00;5.70;;;1.63;;
78406;SDS011;67692;51.074;-1.790;2023-05-29T10:34:36;10.27;;;1.35;;
78406;SDS011;67692;51.074;-1.790;2023-05-29T10:37:08;7.32;;;2.30;;
78406;SDS011;67692;51.074;-1.790;2023-05-29T10:39:43;4.40;;;1.30;;
78406;SDS011;67692;51.074;-1.790;2023-05-29T10:45:08;4.47;;;1.20;;
78406;SDS011;67692;51.074;-1.790;2023-05-29T10:47:36;4.65;;;1.23;;
78406;SDS011;67692;51.074;-1.790;2023-05-29T10:50:05;10.38;;;1.75;;
78406;SDS011;67692;51.074;-1.790;2023-05-29T10:52:32;6.80;;;1.55;;
78406;SDS011;67692;51.074;-1.790;2023-05-29T10:55:00;8.02;;;1.25;;
78406;SDS011;67692;51.074;-1.790;2023-05-29T10:57:29;11.48;;;1.38;;
78406;SDS011;67692;51.074;-1.790;2023-05-29T11:00:04;8.18;;;1.52;;
78406;SDS011;67692;51.074;-1.790;2023-05-29T11:02:38;5.53;;;1.35;;
78406;SDS011;67692;51.074;-1.790;2023-05-29T11:05:18;5.15;;;1.50;;
78406;SDS011;67692;51.074;-1.790;2023-05-29T11:07:52;4.03;;;1.10;;
78406;SDS011;67692;51.074;-1.790;2023-05-29T11:13:23;6.75;;;1.20;;
78406;SDS011;67692;51.074;-1.790;2023-05-29T11:18:46;5.15;;;1.40;;
78406;SDS011;67692;51.074;-1.790;2023-05-29T11:21:27;8.93;;;1.42;;
78406;SDS011;67692;51.074;-1.790;2023-05-29T11:23:57;5.43;;;1.20;;
78406;SDS011;67692;51.074;-1.790;2023-05-29T11:26:25;6.60;;;1.50;;
78406;SDS011;67692;51.074;-1.790;2023-05-29T11:28:53;6.47;;;1.52;;
78406;SDS011;67692;51.074;-1.790;2023-05-29T11:31:19;6.63;;;1.50;;
78406;SDS011;67692;51.074;-1.790;2023-05-29T11:33:48;6.40;;;1.70;;
78406;SDS011;67692;51.074;-1.790;2023-05-29T11:36:16;10.00;;;2.08;;
78406;SDS011;67692;51.074;-1.790;2023-05-29T11:38:45;6.18;;;1.83;;
78406;SDS011;67692;51.074;-1.790;2023-05-29T11:41:12;8.27;;;1.65;;
78406;SDS011;67692;51.074;-1.790;2023-05-29T11:43:39;5.35;;;1.63;;
78406;SDS011;67692;51.074;-1.790;2023-05-29T11:46:14;7.15;;;1.60;;
78406;SDS011;67692;51.074;-1.790;2023-05-29T11:48:44;4.30;;;1.10;;
78406;SDS011;67692;51.074;-1.790;2023-05-29T11:51:11;6.57;;;1.20;;
78406;SDS011;67692;51.074;-1.790;2023-05-29T11:53:39;7.50;;;1.65;;
78406;SDS011;67692;51.074;-1.790;2023-05-29T11:56:08;5.20;;;1.30;;
78406;SDS011;67692;51.074;-1.790;2023-05-29T11:58:36;9.57;;;1.35;;
78406;SDS011;67692;51.074;-1.790;2023-05-29T12:01:03;5.57;;;1.17;;
78406;SDS011;67692;51.074;-1.790;2023-05-29T12:03:29;4.50;;;1.10;;
78406;SDS011;67692;51.074;-1.790;2023-05-29T12:05:56;6.80;;;1.50;;
78406;SDS011;67692;51.074;-1.790;2023-05-29T12:08:23;8.98;;;2.13;;
78406;SDS011;67692;51.074;-1.790;2023-05-29T12:10:51;5.32;;;1.42;;
78406;SDS011;67692;51.074;-1.790;2023-05-29T12:13:20;6.97;;;1.50;;
78406;SDS011;67692;51.074;-1.790;2023-05-29T12:15:49;6.00;;;1.58;;
78406;SDS011;67692;51.074;-1.790;2023-05-29T12:20:45;7.90;;;1.33;;
78406;SDS011;67692;51.074;-1.790;2023-05-29T12:23:12;6.35;;;1.40;;
78406;SDS011;67692;51.074;-1.790;2023-05-29T12:25:38;4.82;;;1.85;;
78406;SDS011;67692;51.074;-1.790;2023-05-29T12:28:05;6.85;;;1.67;;
78406;SDS011;67692;51.074;-1.790;2023-05-29T12:30:37;8.07;;;1.80;;
78406;SDS011;67692;51.074;-1.790;2023-05-29T12:33:05;3.45;;;1.38;;
78406;SDS011;67692;51.074;-1.790;2023-05-29T12:35:32;5.85;;;1.52;;
78406;SDS011;67692;51.074;-1.790;2023-05-29T12:37:59;6.10;;;1.63;;
78406;SDS011;67692;51.074;-1.790;2023-05-29T12:40:27;4.43;;;1.40;;
78406;SDS011;67692;51.074;-1.790;2023-05-29T12:42:54;7.28;;;1.33;;
78406;SDS011;67692;51.074;-1.790;2023-05-29T12:45:23;8.30;;;1.50;;
78406;SDS011;67692;51.074;-1.790;2023-05-29T12:47:53;6.55;;;1.73;;
78406;SDS011;67692;51.074;-1.790;2023-05-29T12:50:21;3.35;;;1.35;;
78406;SDS011;67692;51.074;-1.790;2023-05-29T12:52:55;6.93;;;1.80;;
78406;SDS011;67692;51.074;-1.790;2023-05-29T12:55:24;6.45;;;1.45;;
78406;SDS011;67692;51.074;-1.790;2023-05-29T12:57:51;5.15;;;1.35;;
78406;SDS011;67692;51.074;-1.790;2023-05-29T13:00:18;6.97;;;1.40;;
78406;SDS011;67692;51.074;-1.790;2023-05-29T13:02:45;8.00;;;1.30;;
78406;SDS011;67692;51.074;-1.790;2023-05-29T13:05:14;6.95;;;1.73;;
78406;SDS011;67692;51.074;-1.790;2023-05-29T13:07:43;8.25;;;1.90;;
78406;SDS011;67692;51.074;-1.790;2023-05-29T13:10:10;5.93;;;1.73;;
78406;SDS011;67692;51.074;-1.790;2023-05-29T13:12:37;2.70;;;1.23;;
78406;SDS011;67692;51.074;-1.790;2023-05-29T13:15:04;5.32;;;1.80;;
78406;SDS011;67692;51.074;-1.790;2023-05-29T13:17:31;7.90;;;1.48;;
78406;SDS011;67692;51.074;-1.790;2023-05-29T13:19:59;7.45;;;1.42;;
78406;SDS011;67692;51.074;-1.790;2023-05-29T13:22:27;4.22;;;1.77;;
78406;SDS011;67692;51.074;-1.790;2023-05-29T13:24:56;4.07;;;1.40;;
78406;SDS011;67692;51.074;-1.790;2023-05-29T13:27:25;8.50;;;1.40;;
78406;SDS011;67692;51.074;-1.790;2023-05-29T13:29:51;7.25;;;2.17;;
78406;SDS011;67692;51.074;-1.790;2023-05-29T13:32:18;5.30;;;1.45;;
78406;SDS011;67692;51.074;-1.790;2023-05-29T13:34:45;7.80;;;1.77;;
78406;SDS011;67692;51.074;-1.790;2023-05-29T13:37:12;6.97;;;1.33;;
78406;SDS011;67692;51.074;-1.790;2023-05-29T13:39:40;7.47;;;1.52;;
78406;SDS011;67692;51.074;-1.790;2023-05-29T13:42:07;4.88;;;1.42;;
78406;SDS011;67692;51.074;-1.790;2023-05-29T13:44:34;5.40;;;1.23;;
78406;SDS011;67692;51.074;-1.790;2023-05-29T13:47:01;6.97;;;1.63;;
78406;SDS011;67692;51.074;-1.790;2023-05-29T13:49:27;7.10;;;1.70;;
78406;SDS011;67692;51.074;-1.790;2023-05-29T13:51:54;6.30;;;1.45;;
78406;SDS011;67692;51.074;-1.790;2023-05-29T13:54:21;6.93;;;1.70;;
78406;SDS011;67692;51.074;-1.790;2023-05-29T13:56:48;12.43;;;2.70;;
78406;SDS011;67692;51.074;-1.790;2023-05-29T13:59:15;9.13;;;1.83;;
78406;SDS011;67692;51.074;-1.790;2023-05-29T14:01:42;4.97;;;1.58;;
78406;SDS011;67692;51.074;-1.790;2023-05-29T14:04:10;7.55;;;1.70;;
78406;SDS011;67692;51.074;-1.790;2023-05-29T14:06:36;4.68;;;1.50;;
78406;SDS011;67692;51.074;-1.790;2023-05-29T14:09:03;7.57;;;1.65;;
78406;SDS011;67692;51.074;-1.790;2023-05-29T14:11:29;7.85;;;1.55;;
78406;SDS011;67692;51.074;-1.790;2023-05-29T14:14:01;5.00;;;1.20;;
78406;SDS011;67692;51.074;-1.790;2023-05-29T14:16:28;6.28;;;1.17;;
78406;SDS011;67692;51.074;-1.790;2023-05-29T14:18:54;6.93;;;1.17;;
78406;SDS011;67692;51.074;-1.790;2023-05-29T14:21:21;6.05;;;1.23;;
78406;SDS011;67692;51.074;-1.790;2023-05-29T14:23:48;6.15;;;1.40;;
78406;SDS011;67692;51.074;-1.790;2023-05-29T14:26:14;7.38;;;1.45;;
78406;SDS011;67692;51.074;-1.790;2023-05-29T14:28:41;6.82;;;1.20;;
78406;SDS011;67692;51.074;-1.790;2023-05-29T14:31:09;6.78;;;2.05;;
78406;SDS011;67692;51.074;-1.790;2023-05-29T14:33:35;8.32;;;2.75;;
78406;SDS011;67692;51.074;-1.790;2023-05-29T14:36:02;7.95;;;1.92;;
78406;SDS011;67692;51.074;-1.790;2023-05-29T14:38:29;6.00;;;2.03;;
78406;SDS011;67692;51.074;-1.790;2023-05-29T14:40:56;6.65;;;1.42;;
78406;SDS011;67692;51.074;-1.790;2023-05-29T14:43:22;6.53;;;1.33;;
78406;SDS011;67692;51.074;-1.790;2023-05-29T14:45:49;6.63;;;1.80;;